Aviation Digital Data Service (ADDS)

Output produced by METARs form (0539 UTC 21 January 2019)
found at http://www.aviationweather.gov/metar/data/
 
Forecast for: VDPP (PHNOM-PENH/POCHE, KH)
Text: TAF VDPP 210500Z 2106/2124 02006KT 9999 SCT017
Forecast period: 0600 UTC 21 January 2019 to 0000 UTC 22 January 2019
Forecast type: FROM: standard forecast or significant change
Winds: from the NNE (20 degrees) at 7 MPH (6 knots; 3.1 m/s)
Visibility: 6 or more miles 10+ km)
Ceiling: at least 12,000 feet AGL
Clouds: scattered clouds at 1700 feet AGL
Weather: no significant weather forecast for this period